Time;durP1;ratioP1;P1;durP2;ratioP2;P2;SDS_P1;SDS_P2;PMS_P1;PMS_P2;Temp;Humidity;BMP_temperature;BMP_pressure;BME280_temperature;BME280_humidity;BME280_pressure;Samples;Min_cycle;Max_cycle;Signal;HPM_P1;HPM_P2
2021/05/13 00:01:08;;;;;;;2.94;0.94;;;;;;;7.06;83.47;98642.59;2013362;78;22920;-71
2021/05/13 00:04:11;;;;;;;2.86;1.20;;;;;;;7.05;83.36;98643.47;2011826;80;20322;-71
2021/05/13 00:07:14;;;;;;;3.90;1.08;;;;;;;7.04;83.13;98635.72;2012279;80;20322;-70
2021/05/13 00:10:20;;;;;;;5.95;1.35;;;;;;;7.03;83.11;98641.75;2012011;80;20330;-70
2021/05/13 00:13:23;;;;;;;1.60;0.80;;;;;;;7.02;82.94;98633.16;2012500;80;20694;-70
2021/05/13 00:16:32;;;;;;;3.81;1.01;;;;;;;7.02;82.99;98635.72;2010236;78;20355;-70
2021/05/13 00:19:35;;;;;;;3.03;0.82;;;;;;;7.02;82.96;98635.72;2012047;80;20322;-70
2021/05/13 00:22:37;;;;;;;2.63;0.99;;;;;;;6.96;83.02;98635.72;2011335;80;20399;-70
2021/05/13 00:25:42;;;;;;;3.71;0.90;;;;;;;6.92;82.91;98632.31;2011462;80;20502;-70
2021/05/13 00:28:44;;;;;;;2.89;0.99;;;;;;;6.84;82.80;98625.44;2011701;80;20351;-70
2021/05/13 00:31:47;;;;;;;3.10;0.84;;;;;;;6.81;82.73;98633.16;2009836;78;21379;-70
2021/05/13 00:34:50;;;;;;;1.46;0.86;;;;;;;6.76;82.56;98624.59;2011233;80;20475;-70
2021/05/13 00:37:52;;;;;;;2.84;0.91;;;;;;;6.73;82.47;98628.03;2011469;80;20323;-70
2021/05/13 00:40:55;;;;;;;1.58;1.01;;;;;;;6.73;82.82;98629.75;2011693;80;21246;-70
2021/05/13 00:43:58;;;;;;;2.16;1.05;;;;;;;6.71;82.86;98634.91;2011430;80;20389;-70
2021/05/13 00:47:00;;;;;;;1.16;0.75;;;;;;;6.70;82.88;98629.78;2010750;78;22174;-70
2021/05/13 00:50:05;;;;;;;4.82;1.19;;;;;;;6.69;83.02;98622.88;2011929;80;20340;-70
2021/05/13 00:53:10;;;;;;;2.29;1.05;;;;;;;6.66;83.10;98622.03;2011489;80;20354;-71
2021/05/13 00:56:14;;;;;;;2.19;0.88;;;;;;;6.67;83.01;98625.47;2011410;80;20335;-71
2021/05/13 00:59:18;;;;;;;3.39;1.19;;;;;;;6.64;83.14;98618.59;2012476;80;20987;-70
2021/05/13 01:02:21;;;;;;;2.13;1.14;;;;;;;6.64;83.16;98621.19;2010557;78;20341;-71
2021/05/13 01:05:25;;;;;;;2.61;1.24;;;;;;;6.63;83.34;98623.72;2011078;80;20354;-71
2021/05/13 01:08:28;;;;;;;3.39;0.90;;;;;;;6.63;83.58;98628.91;2012128;80;21135;-71
2021/05/13 01:11:31;;;;;;;2.44;1.11;;;;;;;6.60;84.13;98618.59;2011842;80;20306;-71
2021/05/13 01:17:43;;;;;;;4.39;1.33;;;;;;;6.57;84.11;98618.59;2010946;78;20323;-71
2021/05/13 01:20:48;;;;;;;2.60;1.23;;;;;;;6.56;84.20;98620.31;2011605;80;20346;-71
2021/05/13 01:23:50;;;;;;;2.75;1.00;;;;;;;6.54;84.26;98613.44;2011460;80;20342;-73
2021/05/13 01:26:53;;;;;;;1.54;1.00;;;;;;;6.49;84.17;98613.47;2014852;80;20379;-71
2021/05/13 01:29:58;;;;;;;2.49;1.00;;;;;;;6.45;84.20;98610.84;2011708;80;20339;-71
2021/05/13 01:33:01;;;;;;;3.40;1.09;;;;;;;6.45;84.37;98619.44;2005928;80;21510;-70
2021/05/13 01:36:04;;;;;;;3.81;1.64;;;;;;;6.43;84.31;98615.16;2005825;80;20330;-71
2021/05/13 01:39:10;;;;;;;2.92;1.00;;;;;;;6.40;84.26;98613.44;2008711;80;20399;-71
2021/05/13 01:42:14;;;;;;;2.42;1.35;;;;;;;6.35;84.70;98612.59;2008415;80;20336;-71
2021/05/13 01:45:17;;;;;;;2.08;0.90;;;;;;;6.41;84.87;98606.56;2007080;78;20376;-71
2021/05/13 01:48:20;;;;;;;1.90;1.10;;;;;;;6.45;85.14;98610.84;2013294;80;20359;-71
2021/05/13 01:51:23;;;;;;;1.41;0.91;;;;;;;6.37;85.41;98597.97;2013190;80;20346;-71
2021/05/13 01:54:27;;;;;;;2.51;1.20;;;;;;;6.35;85.83;98602.28;2013452;80;20718;-71
2021/05/13 01:57:30;;;;;;;4.09;1.00;;;;;;;6.37;86.01;98597.97;2012742;80;20861;-71
2021/05/13 02:00:37;;;;;;;4.32;2.09;;;;;;;6.40;86.20;98594.53;2012113;78;20768;-71
2021/05/13 02:03:41;;;;;;;3.60;0.91;;;;;;;6.46;86.49;98595.38;2014429;80;20333;-71
2021/05/13 02:06:44;;;;;;;4.84;1.40;;;;;;;6.49;86.46;98591.97;2013920;80;20671;-71
2021/05/13 02:09:47;;;;;;;1.80;1.02;;;;;;;6.53;86.30;98593.69;2014650;80;20310;-71
2021/05/13 02:12:49;;;;;;;2.24;1.39;;;;;;;6.54;86.12;98588.50;2014590;80;20368;-71
2021/05/13 02:15:52;;;;;;;2.63;1.00;;;;;;;6.55;86.08;98585.06;2013913;77;22855;-71
2021/05/13 02:18:55;;;;;;;3.74;1.02;;;;;;;6.58;86.10;98584.19;2014645;80;20431;-71
2021/05/13 02:21:57;;;;;;;2.49;1.09;;;;;;;6.59;86.07;98578.19;2014582;80;20310;-71
2021/05/13 02:25:00;;;;;;;2.65;1.14;;;;;;;6.61;85.70;98577.31;2014895;80;20339;-71
2021/05/13 02:28:03;;;;;;;1.80;0.99;;;;;;;6.58;85.57;98573.88;2013242;80;20335;-71
2021/05/13 02:31:05;;;;;;;2.13;1.00;;;;;;;6.55;85.62;98572.19;2013907;78;20966;-71
2021/05/13 02:34:08;;;;;;;4.68;1.04;;;;;;;6.54;85.49;98578.19;2014219;80;20355;-71
2021/05/13 02:37:11;;;;;;;3.19;1.06;;;;;;;6.52;85.59;98567.03;2014758;80;20399;-71
2021/05/13 02:40:15;;;;;;;0.94;0.79;;;;;;;6.51;85.66;98564.47;2014800;80;20790;-71
2021/05/13 02:43:18;;;;;;;1.21;0.84;;;;;;;6.45;86.04;98554.97;2014423;80;20318;-71
2021/05/13 02:46:20;;;;;;;2.33;1.10;;;;;;;6.48;86.33;98556.72;2013885;80;22315;-71
2021/05/13 02:49:23;;;;;;;2.84;0.80;;;;;;;6.51;86.17;98561.88;2014024;80;20338;-71
2021/05/13 02:52:25;;;;;;;4.28;1.10;;;;;;;6.50;86.28;98558.44;2013875;80;20839;-71
2021/05/13 02:55:28;;;;;;;3.36;1.08;;;;;;;6.50;86.19;98555.84;2013895;80;20322;-71
2021/05/13 02:58:31;;;;;;;4.22;1.09;;;;;;;6.53;86.16;98558.44;2013580;80;20345;-72
2021/05/13 03:01:33;;;;;;;1.90;0.91;;;;;;;6.56;86.26;98557.56;2012491;78;25887;-71
2021/05/13 03:04:38;;;;;;;4.14;1.10;;;;;;;6.57;86.17;98562.72;2012382;80;20844;-71
2021/05/13 03:07:49;;;;;;;3.05;0.95;;;;;;;6.59;86.37;98563.56;2012472;80;20354;-71
2021/05/13 03:10:52;;;;;;;1.99;0.96;;;;;;;6.60;86.58;98559.25;2012022;80;20302;-71
2021/05/13 03:13:57;;;;;;;4.19;1.06;;;;;;;6.63;86.66;98564.41;2012553;80;20371;-72
2021/05/13 03:17:00;;;;;;;1.66;0.90;;;;;;;6.63;86.91;98567.84;2011351;78;23451;-68
2021/05/13 03:20:04;;;;;;;2.95;1.10;;;;;;;6.64;86.80;98567.00;2012303;80;21098;-69
2021/05/13 03:23:10;;;;;;;1.63;0.91;;;;;;;6.66;86.81;98569.59;2011843;80;20377;-69
2021/05/13 03:26:13;;;;;;;1.67;0.81;;;;;;;6.68;86.90;98573.03;2012342;80;20321;-68
2021/05/13 03:29:17;;;;;;;2.21;1.02;;;;;;;6.66;86.99;98569.59;2012913;80;20366;-68
2021/05/13 03:32:19;;;;;;;0.90;0.80;;;;;;;6.66;86.87;98574.75;2011139;78;23534;-69
2021/05/13 03:35:22;;;;;;;2.04;1.04;;;;;;;6.68;86.55;98578.19;2012352;80;20351;-70
2021/05/13 03:38:25;;;;;;;5.51;1.00;;;;;;;6.68;86.26;98575.59;2011793;80;20780;-71
2021/05/13 03:41:27;;;;;;;2.14;1.00;;;;;;;6.66;86.20;98572.16;2011815;80;20330;-70
2021/05/13 03:44:30;;;;;;;3.15;1.00;;;;;;;6.64;85.97;98564.44;2012695;80;20351;-70
2021/05/13 03:47:33;;;;;;;4.04;1.00;;;;;;;6.61;86.22;98566.13;2011071;79;21690;-70
2021/05/13 03:50:37;;;;;;;2.41;0.88;;;;;;;6.59;85.92;98565.28;2012564;80;20326;-70
2021/05/13 03:53:40;;;;;;;2.51;1.04;;;;;;;6.54;85.55;98561.88;2012440;80;20553;-70
2021/05/13 03:56:43;;;;;;;1.85;1.23;;;;;;;6.47;85.18;98565.31;2012583;80;20329;-70
2021/05/13 03:59:45;;;;;;;1.95;1.09;;;;;;;6.41;84.90;98557.56;2011636;80;20796;-70
2021/05/13 04:02:48;;;;;;;2.13;1.10;;;;;;;6.32;84.63;98563.63;2011690;78;20369;-70
2021/05/13 04:05:50;;;;;;;4.84;1.20;;;;;;;6.29;84.73;98566.22;2011863;80;21108;-71
2021/05/13 04:08:53;;;;;;;2.70;1.04;;;;;;;6.24;84.71;98561.03;2012459;80;20375;-70
2021/05/13 04:11:56;;;;;;;3.14;1.25;;;;;;;6.18;84.61;98560.19;2011879;80;20314;-71
2021/05/13 04:15:04;;;;;;;3.85;1.20;;;;;;;6.11;84.55;98556.75;2011893;80;20707;-71
2021/05/13 04:18:07;;;;;;;2.81;1.20;;;;;;;6.07;84.39;98552.44;2011625;78;20800;-70
2021/05/13 04:21:10;;;;;;;4.38;1.34;;;;;;;6.08;84.57;98551.56;2011969;80;20314;-71
2021/05/13 04:24:14;;;;;;;3.25;1.29;;;;;;;6.05;84.46;98543.84;2012017;80;20459;-71
2021/05/13 04:27:16;;;;;;;2.01;1.05;;;;;;;6.03;84.40;98550.72;2011743;80;20821;-71
2021/05/13 04:30:19;;;;;;;2.71;1.52;;;;;;;6.02;84.41;98555.03;2010540;78;20704;-71
2021/05/13 04:33:22;;;;;;;2.96;1.71;;;;;;;6.00;84.55;98554.16;2013328;80;20313;-71
2021/05/13 04:36:25;;;;;;;5.44;1.26;;;;;;;6.00;84.94;98546.44;2017432;80;20468;-71
2021/05/13 04:39:27;;;;;;;2.91;1.20;;;;;;;6.03;84.94;98543.84;2017204;80;20333;-71
2021/05/13 04:42:30;;;;;;;2.88;1.20;;;;;;;6.08;85.19;98541.28;2016883;80;20309;-71
2021/05/13 04:45:33;;;;;;;4.49;1.24;;;;;;;6.19;85.75;98539.56;2015176;78;21359;-72
2021/05/13 04:48:52;;;;;;;5.63;1.23;;;;;;;6.31;86.32;98547.28;2011702;80;20322;-71
2021/05/13 04:51:56;;;;;;;3.60;1.24;;;;;;;6.44;86.85;98542.97;2011727;80;20350;-71
2021/05/13 04:54:59;;;;;;;4.06;1.11;;;;;;;6.60;86.94;98544.66;2011716;80;20408;-71
2021/05/13 04:58:02;;;;;;;2.13;1.10;;;;;;;6.69;86.86;98548.09;2012184;80;20420;-71
2021/05/13 05:01:05;;;;;;;2.78;1.49;;;;;;;6.86;86.61;98539.44;2013167;78;20321;-71
2021/05/13 05:04:07;;;;;;;1.52;0.98;;;;;;;7.06;86.03;98533.34;2016475;80;20436;-72
2021/05/13 05:07:10;;;;;;;2.08;0.76;;;;;;;7.26;85.81;98531.50;2017678;80;20285;-71
2021/05/13 05:10:13;;;;;;;1.55;1.19;;;;;;;7.36;85.16;98524.56;2016490;80;21100;-71
2021/05/13 05:13:15;;;;;;;4.28;1.10;;;;;;;7.67;84.71;98528.69;2016528;80;20209;-72
2021/05/13 05:16:18;;;;;;;2.97;1.09;;;;;;;8.05;83.19;98524.94;2013439;78;22075;-71
2021/05/13 05:19:20;;;;;;;3.44;1.51;;;;;;;8.37;82.15;98524.69;2011920;80;20234;-71
2021/05/13 05:22:23;;;;;;;1.80;1.04;;;;;;;8.79;80.79;98516.47;2011052;80;20197;-71
2021/05/13 05:25:26;;;;;;;4.07;0.93;;;;;;;9.14;79.58;98511.75;2011397;80;20176;-71
2021/05/13 05:28:28;;;;;;;4.38;1.04;;;;;;;9.29;78.53;98511.56;2011672;80;20263;-71
2021/05/13 05:31:31;;;;;;;3.11;1.21;;;;;;;9.61;77.76;98504.19;2013315;78;20179;-70
2021/05/13 05:34:34;;;;;;;2.76;1.10;;;;;;;9.97;76.87;98512.28;2016747;80;20213;-70
2021/05/13 05:37:39;;;;;;;3.29;1.24;;;;;;;10.28;76.59;98513.50;2017479;80;20201;-71
2021/05/13 05:40:42;;;;;;;2.99;1.21;;;;;;;10.62;75.94;98507.72;2016848;80;20231;-71
2021/05/13 05:43:44;;;;;;;3.29;1.31;;;;;;;10.98;73.97;98500.09;2017203;80;20180;-71
2021/05/13 05:46:47;;;;;;;5.03;1.11;;;;;;;11.33;72.87;98504.56;2014785;78;20214;-70
2021/05/13 05:49:50;;;;;;;2.96;1.40;;;;;;;11.52;72.34;98502.41;2016741;80;20168;-70
2021/05/13 05:52:53;;;;;;;4.15;1.20;;;;;;;11.39;72.26;98487.06;2016487;80;21071;-71
2021/05/13 05:55:56;;;;;;;4.46;1.34;;;;;;;11.51;72.54;98491.16;2016420;80;20597;-71
2021/05/13 05:59:00;;;;;;;4.47;1.45;;;;;;;11.91;72.01;98498.06;2017013;80;20187;-71
2021/05/13 06:02:02;;;;;;;3.86;1.33;;;;;;;12.29;70.59;98489.28;2012746;78;20378;-71
2021/05/13 06:05:06;;;;;;;4.60;1.50;;;;;;;12.68;69.22;98487.38;2012013;80;20180;-71
2021/05/13 06:08:09;;;;;;;7.65;1.55;;;;;;;12.86;68.45;98486.00;2011501;80;20624;-71
2021/05/13 06:11:12;;;;;;;3.75;1.30;;;;;;;12.62;69.09;98483.19;2011445;80;20197;-71
2021/05/13 06:14:14;;;;;;;4.24;1.84;;;;;;;12.89;69.00;98478.94;2010755;80;20245;-71
2021/05/13 06:17:17;;;;;;;3.58;1.42;;;;;;;13.32;68.05;98476.91;2012656;78;28404;-73
2021/05/13 06:20:25;;;;;;;10.94;2.01;;;;;;;13.02;67.19;98477.72;2015283;80;20207;-72
2021/05/13 06:23:29;;;;;;;4.27;1.74;;;;;;;12.91;68.23;98479.75;2015046;80;20981;-71
2021/05/13 06:26:35;;;;;;;4.93;1.80;;;;;;;13.71;67.34;98477.41;2015604;80;20164;-71
2021/05/13 06:29:38;;;;;;;4.00;1.61;;;;;;;14.16;64.81;98477.66;2016344;80;20205;-72
2021/05/13 06:32:42;;;;;;;4.80;1.71;;;;;;;14.28;62.97;98472.03;2010121;78;22944;-71
2021/05/13 06:35:44;;;;;;;2.75;1.46;;;;;;;14.18;64.43;98479.34;2014729;80;20593;-71
2021/05/13 06:38:47;;;;;;;4.97;1.71;;;;;;;14.00;65.18;98486.88;2015757;80;20201;-71
2021/05/13 06:41:49;;;;;;;6.45;1.55;;;;;;;13.93;65.28;98486.25;2014963;80;20236;-71
2021/05/13 06:44:52;;;;;;;3.89;1.58;;;;;;;14.14;65.91;98489.91;2015783;80;20642;-71
2021/05/13 06:47:55;;;;;;;4.34;1.51;;;;;;;14.23;65.69;98494.00;2015297;78;21639;-71
2021/05/13 06:50:58;;;;;;;5.97;1.10;;;;;;;14.31;66.29;98498.03;2015996;80;20168;-71
2021/05/13 06:54:01;;;;;;;3.65;1.49;;;;;;;14.40;66.18;98502.97;2015973;80;20209;-73
2021/05/13 06:57:04;;;;;;;2.70;1.02;;;;;;;14.23;65.60;98488.75;2016070;80;21289;-72
2021/05/13 07:00:07;;;;;;;6.25;1.09;;;;;;;14.19;65.75;98495.84;2015149;80;20175;-72
2021/05/13 07:03:09;;;;;;;1.95;1.20;;;;;;;14.19;65.73;98501.06;2015564;80;21929;-72
2021/05/13 07:06:12;;;;;;;2.89;1.10;;;;;;;14.24;65.47;98506.13;2015549;80;20175;-71
2021/05/13 07:09:15;;;;;;;3.00;1.14;;;;;;;14.30;65.98;98493.72;2015904;80;20175;-71
2021/05/13 07:12:17;;;;;;;3.59;1.25;;;;;;;14.44;64.85;98501.13;2016296;80;20180;-71
2021/05/13 07:15:20;;;;;;;3.20;1.10;;;;;;;14.93;63.99;98495.03;2014630;78;22649;-72
2021/05/13 07:18:22;;;;;;;5.34;1.25;;;;;;;15.29;62.29;98500.66;2016174;80;20211;-71
2021/05/13 07:21:25;;;;;;;2.41;0.85;;;;;;;15.64;61.03;98498.47;2016392;80;20189;-74
2021/05/13 07:24:28;;;;;;;4.03;0.91;;;;;;;15.68;60.76;98495.69;2017367;80;20721;-71
2021/05/13 07:27:30;;;;;;;2.88;1.14;;;;;;;16.21;59.78;98497.91;2018052;80;20199;-71
2021/05/13 07:30:33;;;;;;;2.40;0.80;;;;;;;16.68;57.40;98494.19;2016816;78;20966;-71
2021/05/13 07:33:37;;;;;;;3.50;0.80;;;;;;;17.02;54.44;98497.03;2017585;80;20164;-72
2021/05/13 07:36:39;;;;;;;3.09;0.60;;;;;;;17.21;52.99;98492.66;2017463;80;20213;-72
2021/05/13 07:39:42;;;;;;;3.33;0.66;;;;;;;17.46;52.08;98488.91;2018152;80;20190;-72
2021/05/13 07:42:45;;;;;;;1.91;0.65;;;;;;;17.48;52.10;98490.53;2017374;80;20280;-72
2021/05/13 07:45:49;;;;;;;2.33;0.64;;;;;;;17.18;52.02;98490.16;2015787;78;27655;-72
2021/05/13 07:48:52;;;;;;;1.60;0.60;;;;;;;17.28;53.20;98484.53;2012483;80;20476;-72
2021/05/13 07:51:55;;;;;;;1.33;0.70;;;;;;;17.20;53.26;98487.47;2012012;80;20176;-73
2021/05/13 07:54:58;;;;;;;7.50;2.11;;;;;;;17.12;53.92;98489.59;2012488;80;20387;-72
2021/05/13 07:58:01;;;;;;;2.21;0.70;;;;;;;17.14;53.09;98490.38;2012532;80;20698;-72
2021/05/13 08:01:03;;;;;;;1.52;0.69;;;;;;;17.19;52.22;98486.63;2011776;78;21728;-72
2021/05/13 08:04:10;;;;;;;3.14;0.86;;;;;;;17.18;52.47;98497.19;2012302;80;20216;-71
2021/05/13 08:07:13;;;;;;;6.04;0.73;;;;;;;17.24;54.47;98493.47;2011804;80;20299;-72
2021/05/13 08:10:16;;;;;;;2.08;0.60;;;;;;;17.27;52.77;98488.91;2011268;80;20938;-72
2021/05/13 08:13:18;;;;;;;2.90;0.90;;;;;;;17.26;53.05;98492.47;2011734;80;20188;-73
2021/05/13 08:16:21;;;;;;;4.09;0.84;;;;;;;17.14;52.48;98493.88;2012882;77;20207;-72
2021/05/13 08:19:24;;;;;;;2.61;0.70;;;;;;;17.01;53.67;98497.94;2017241;80;20290;-71
2021/05/13 08:22:27;;;;;;;3.42;0.84;;;;;;;16.90;53.66;98493.19;2017981;80;20156;-72
2021/05/13 08:25:29;;;;;;;1.91;0.70;;;;;;;16.75;54.38;98499.13;2017762;80;20865;-72
2021/05/13 08:28:32;;;;;;;3.10;0.70;;;;;;;16.77;55.56;98494.66;2017244;80;20659;-72
2021/05/13 08:31:35;;;;;;;2.61;0.80;;;;;;;16.62;53.50;98495.28;2016948;78;20176;-72
2021/05/13 08:34:38;;;;;;;1.88;0.61;;;;;;;16.50;54.41;98495.78;2017620;80;20322;-71
2021/05/13 08:37:40;;;;;;;2.83;0.76;;;;;;;16.44;55.53;98506.56;2017054;80;20209;-71
2021/05/13 08:40:43;;;;;;;3.39;0.80;;;;;;;16.45;56.11;98505.63;2016990;80;20171;-71
2021/05/13 08:43:50;;;;;;;5.11;0.90;;;;;;;16.42;55.66;98504.00;2016208;80;20642;-71
2021/05/13 08:46:53;;;;;;;2.47;0.70;;;;;;;16.29;56.97;98502.81;2016363;77;22044;-72
2021/05/13 08:50:01;;;;;;;1.25;0.57;;;;;;;16.32;56.95;98507.91;2017352;80;20311;-72
2021/05/13 08:53:05;;;;;;;3.88;0.75;;;;;;;16.33;56.03;98502.59;2016223;80;20168;-71
2021/05/13 08:56:07;;;;;;;4.41;0.82;;;;;;;16.43;56.75;98510.09;2015622;80;20160;-72
2021/05/13 08:59:14;;;;;;;1.45;0.81;;;;;;;16.43;57.30;98512.72;2015217;80;20621;-71
2021/05/13 09:02:18;;;;;;;2.21;0.68;;;;;;;16.50;56.96;98511.53;2014083;78;74425;-72
2021/05/13 09:05:22;;;;;;;3.66;0.80;;;;;;;16.41;54.08;98511.94;2015089;80;20928;-71
2021/05/13 09:08:25;;;;;;;2.54;0.70;;;;;;;16.42;54.59;98514.47;2015892;80;20903;-72
2021/05/13 09:11:30;;;;;;;2.69;0.80;;;;;;;16.49;54.03;98509.81;2015445;80;20232;-72
2021/05/13 09:14:33;;;;;;;2.41;1.17;;;;;;;16.70;54.44;98500.25;2016919;80;20657;-72
2021/05/13 09:17:37;;;;;;;2.95;0.61;;;;;;;16.82;54.60;98499.69;2016015;77;21170;-72
2021/05/13 09:20:43;;;;;;;1.92;0.60;;;;;;;16.83;53.82;98507.47;2016492;80;20168;-71
2021/05/13 09:23:46;;;;;;;1.75;0.60;;;;;;;16.77;54.21;98499.03;2015821;80;20244;-72
2021/05/13 09:26:48;;;;;;;2.50;0.60;;;;;;;16.80;54.49;98502.38;2015209;80;20202;-72
2021/05/13 09:30:03;;;;;;;2.61;0.61;;;;;;;16.82;53.95;98507.56;2014621;80;20187;-72
2021/05/13 09:33:08;;;;;;;3.17;0.60;;;;;;;17.05;54.19;98498.66;2009852;78;20926;-72
2021/05/13 09:36:18;;;;;;;1.84;0.70;;;;;;;17.21;53.00;98505.78;2009239;80;20222;-72
2021/05/13 09:39:23;;;;;;;2.21;0.50;;;;;;;17.08;52.99;98502.03;2010236;80;20176;-72
2021/05/13 09:42:26;;;;;;;1.44;0.60;;;;;;;16.99;53.21;98501.56;2010480;80;20209;-72
2021/05/13 09:45:41;;;;;;;0.70;0.41;;;;;;;16.90;53.45;98500.22;2009805;77;22829;-72
2021/05/13 09:48:46;;;;;;;2.22;0.54;;;;;;;16.78;52.90;98506.84;2015128;80;20732;-72
2021/05/13 09:51:49;;;;;;;2.64;0.64;;;;;;;16.68;53.72;98502.06;2015675;80;20179;-72
2021/05/13 09:55:15;;;;;;;1.41;0.60;;;;;;;16.66;54.26;98503.84;2015621;80;20248;-72
2021/05/13 09:58:23;;;;;;;1.73;0.50;;;;;;;16.60;53.28;98502.38;2014878;80;20578;-72
2021/05/13 10:01:36;;;;;;;1.73;0.44;;;;;;;16.56;54.56;98498.19;2015326;78;22249;-71
2021/05/13 10:04:39;;;;;;;1.56;0.50;;;;;;;16.38;54.30;98512.91;2016386;80;20278;-72
2021/05/13 10:07:41;;;;;;;1.70;0.40;;;;;;;16.36;55.12;98521.75;2016534;80;20218;-72
2021/05/13 10:11:06;;;;;;;1.69;0.50;;;;;;;16.53;55.17;98511.41;2017773;80;20257;-72
2021/05/13 10:14:09;;;;;;;1.60;0.60;;;;;;;16.84;55.11;98503.09;2017553;80;20235;-71
2021/05/13 10:17:13;;;;;;;1.25;0.40;;;;;;;17.06;55.33;98509.09;2016847;78;21757;-72
2021/05/13 10:20:22;;;;;;;1.39;0.41;;;;;;;17.11;55.17;98507.13;2017350;80;20212;-71
2021/05/13 10:23:25;;;;;;;;;;;;;;;17.10;54.49;98505.41;2018020;80;20201;-71
2021/05/13 10:26:27;;;;;;;3.35;0.50;;;;;;;17.11;54.28;98501.03;2017467;80;20089;-72
2021/05/13 10:29:30;;;;;;;1.30;0.70;;;;;;;17.08;54.70;98502.03;2017630;80;20202;-73
2021/05/13 10:32:39;;;;;;;1.15;0.57;;;;;;;17.29;54.15;98497.56;2012639;78;25591;-71
2021/05/13 10:36:02;;;;;;;2.36;0.40;;;;;;;18.05;53.31;98486.06;2012360;80;21057;-72
2021/05/13 10:39:10;;;;;;;1.20;0.60;;;;;;;18.99;50.08;98482.16;2012066;80;20658;-72
2021/05/13 10:42:34;;;;;;;1.96;0.85;;;;;;;19.15;50.01;98490.94;2012458;80;20261;-72
2021/05/13 10:45:45;;;;;;;1.83;0.70;;;;;;;19.02;48.76;98493.38;2011485;78;20817;-71
2021/05/13 10:48:48;;;;;;;3.15;0.73;;;;;;;18.51;49.41;98475.91;2012713;80;20176;-71
2021/05/13 10:52:28;;;;;;;1.74;0.50;;;;;;;18.13;50.23;98480.44;2011823;80;20176;-73
2021/05/13 10:55:37;;;;;;;2.91;0.60;;;;;;;17.59;52.08;98494.41;2012196;80;20214;-72
2021/05/13 10:59:00;;;;;;;0.84;0.40;;;;;;;17.09;53.38;98487.97;2012269;80;20190;-70
2021/05/13 11:02:03;;;;;;;1.25;0.40;;;;;;;16.63;55.43;98486.50;2015945;78;22165;-71
2021/05/13 11:05:28;;;;;;;0.20;0.20;;;;;;;16.31;56.92;98496.56;2017444;80;20834;-69
2021/05/13 11:08:42;;;;;;;0.32;0.20;;;;;;;16.01;57.54;98498.72;2016766;80;20313;-73
2021/05/13 11:12:13;;;;;;;0.75;0.20;;;;;;;15.94;58.07;98488.53;2017471;80;20188;-71
2021/05/13 11:18:26;;;;;;;2.78;0.20;;;;;;;15.75;57.94;98511.13;2017569;80;20209;-71
2021/05/13 11:21:54;;;;;;;0.77;0.30;;;;;;;15.60;58.78;98502.09;2016831;80;20186;-67
2021/05/13 11:24:59;;;;;;;27.86;1.27;;;;;;;15.58;59.62;98503.91;2016706;80;20179;-70
2021/05/13 11:28:42;;;;;;;5.31;0.24;;;;;;;15.65;59.55;98505.41;2017189;80;20196;-70
2021/05/13 11:31:49;;;;;;;0.29;0.10;;;;;;;15.46;58.79;98527.94;2016490;78;20179;-69
2021/05/13 11:34:52;;;;;;;1.20;0.50;;;;;;;15.10;59.32;98526.63;2017339;80;20209;-72
2021/05/13 11:37:55;;;;;;;54.13;44.50;;;;;;;15.05;60.49;98525.94;2016437;80;20203;-73
2021/05/13 11:40:58;;;;;;;237.68;213.19;;;;;;;14.91;61.60;98530.81;2016935;80;20937;-70
2021/05/13 11:44:01;;;;;;;41.84;37.75;;;;;;;14.96;60.94;98538.50;2016919;80;20176;-70
2021/05/13 11:47:04;;;;;;;32.25;29.36;;;;;;;14.65;61.23;98536.94;2014039;78;20240;-70
2021/05/13 11:50:07;;;;;;;94.26;86.29;;;;;;;14.47;63.09;98538.44;2016074;80;20168;-70
2021/05/13 11:53:12;;;;;;;29.42;27.05;;;;;;;14.24;64.80;98543.53;2016604;80;20217;-70
2021/05/13 11:56:17;;;;;;;22.13;20.63;;;;;;;14.12;65.26;98552.63;2016386;80;20804;-70
2021/05/13 11:59:19;;;;;;;16.17;15.13;;;;;;;13.93;65.85;98548.88;2016187;80;20832;-70
2021/05/13 12:02:22;;;;;;;36.29;34.00;;;;;;;13.84;66.63;98544.81;2016432;80;22717;-70
2021/05/13 12:05:24;;;;;;;11.31;10.71;;;;;;;13.82;67.55;98550.97;2017477;80;20235;-70
2021/05/13 12:08:27;;;;;;;8.49;7.99;;;;;;;13.80;67.67;98551.00;2016178;80;20189;-70
2021/05/13 12:11:30;;;;;;;2.33;2.22;;;;;;;13.64;68.07;98557.59;2016980;80;20179;-70
2021/05/13 12:14:33;;;;;;;14.88;13.99;;;;;;;13.54;69.62;98562.25;2016900;80;20183;-73
2021/05/13 12:17:36;;;;;;;89.68;54.25;;;;;;;13.57;70.44;98553.47;2016255;78;20211;-70
2021/05/13 12:20:41;;;;;;;9.41;8.71;;;;;;;13.79;70.33;98556.28;2016549;80;20272;-69
2021/05/13 12:23:46;;;;;;;452.19;407.08;;;;;;;13.80;69.90;98555.38;2016244;80;20293;-70
2021/05/13 12:26:50;;;;;;;54.26;45.16;;;;;;;13.73;71.51;98546.91;2016796;80;20164;-70
2021/05/13 12:29:53;;;;;;;76.79;68.63;;;;;;;13.73;72.15;98548.66;2016022;80;20195;-70
2021/05/13 12:32:56;;;;;;;75.51;67.28;;;;;;;13.76;73.70;98549.41;2015662;78;24348;-69
2021/05/13 12:35:59;;;;;;;48.39;44.10;;;;;;;14.06;74.47;98547.59;2016975;80;20187;-70
2021/05/13 12:39:03;;;;;;;178.21;160.14;;;;;;;14.28;71.44;98550.38;2016476;80;20180;-70
2021/05/13 12:42:22;;;;;;;599.17;537.26;;;;;;;14.47;70.85;98548.03;2016835;80;20215;-75
2021/05/13 12:45:25;;;;;;;73.92;66.21;;;;;;;15.06;72.11;98547.69;2014375;78;120916;-75
2021/05/13 12:48:31;;;;;;;74.75;67.18;;;;;;;15.69;65.40;98551.50;2011519;80;20705;-74
2021/05/13 12:51:37;;;;;;;90.19;81.11;;;;;;;16.25;64.45;98546.63;2011601;80;20277;-73
2021/05/13 12:54:41;;;;;;;54.47;49.26;;;;;;;17.08;64.23;98545.75;2012382;80;20204;-75
2021/05/13 12:57:47;;;;;;;236.00;213.13;;;;;;;17.79;58.03;98536.41;2012126;80;20219;-75
2021/05/13 13:00:58;;;;;;;474.33;426.41;;;;;;;18.12;57.28;98542.63;2010366;78;34191;-74
2021/05/13 13:04:05;;;;;;;528.50;473.04;;;;;;;18.12;55.60;98536.53;2011922;80;20206;-74
2021/05/13 13:07:08;;;;;;;121.76;107.28;;;;;;;17.88;54.74;98538.56;2011684;80;21044;-75
2021/05/13 13:10:24;;;;;;;132.95;118.80;;;;;;;17.62;55.21;98538.94;2011296;80;20180;-74
2021/05/13 13:13:40;;;;;;;70.40;62.99;;;;;;;17.58;55.56;98532.09;2012036;80;21051;-75
2021/05/13 13:16:42;;;;;;;101.05;91.28;;;;;;;17.30;51.81;98540.41;2010370;77;42431;-74
2021/05/13 13:19:58;;;;;;;84.21;76.53;;;;;;;17.10;54.06;98546.53;2011610;80;20161;-74
2021/05/13 13:23:20;;;;;;;58.20;52.88;;;;;;;16.85;53.99;98544.13;2011467;80;20201;-74
2021/05/13 13:26:29;;;;;;;77.25;70.61;;;;;;;16.67;53.62;98550.16;2015189;80;20287;-74
2021/05/13 13:29:31;;;;;;;16.79;15.39;;;;;;;16.59;53.98;98539.97;2012116;80;20598;-74
2021/05/13 13:32:34;;;;;;;17.61;16.05;;;;;;;16.56;54.32;98538.34;2014449;78;92088;-74
2021/05/13 13:35:41;;;;;;;200.16;179.38;;;;;;;16.66;53.31;98535.31;2017473;80;20347;-75
2021/05/13 13:38:44;;;;;;;27.48;22.10;;;;;;;16.71;53.78;98530.78;2016731;80;20224;-76
2021/05/13 13:41:47;;;;;;;11.41;10.38;;;;;;;17.08;53.56;98523.00;2016322;80;20222;-73
2021/05/13 13:44:51;;;;;;;7.21;6.50;;;;;;;17.25;53.73;98519.63;2017173;80;20176;-74
2021/05/13 13:47:53;;;;;;;4.09;3.72;;;;;;;17.47;51.73;98512.47;2015960;78;26626;-74
2021/05/13 13:50:58;;;;;;;3.13;2.83;;;;;;;17.54;54.10;98507.75;2017309;80;20187;-74
2021/05/13 13:54:01;;;;;;;2.05;1.95;;;;;;;17.43;53.48;98505.66;2017290;80;21204;-74
2021/05/13 13:57:04;;;;;;;1.44;1.34;;;;;;;17.36;52.15;98514.72;2016855;80;20210;-73
2021/05/13 14:00:07;;;;;;;0.82;0.82;;;;;;;17.24;51.28;98514.44;2015610;80;20233;-74
2021/05/13 14:03:11;;;;;;;0.60;0.60;;;;;;;17.10;51.33;98508.03;2016975;78;24048;-74
2021/05/13 14:06:15;;;;;;;0.80;0.59;;;;;;;16.89;52.20;98507.22;2016648;80;20201;-74
2021/05/13 14:09:18;;;;;;;0.66;0.40;;;;;;;16.52;51.25;98515.81;2016477;80;20196;-74
2021/05/13 14:12:21;;;;;;;0.43;0.30;;;;;;;16.23;52.55;98508.31;2016764;80;20205;-74
2021/05/13 14:15:25;;;;;;;0.28;0.26;;;;;;;16.09;54.42;98511.47;2015714;77;32010;-73
2021/05/13 14:18:29;;;;;;;1.73;0.20;;;;;;;16.09;55.29;98508.00;2020643;80;20652;-74
2021/05/13 14:21:32;;;;;;;0.52;0.20;;;;;;;16.12;54.63;98503.50;2016942;80;20524;-74
2021/05/13 14:24:35;;;;;;;0.20;0.20;;;;;;;16.22;54.04;98509.22;2016568;80;20304;-74
2021/05/13 14:27:38;;;;;;;0.10;0.10;;;;;;;16.40;53.23;98504.97;2017161;80;20731;-73
2021/05/13 14:30:41;;;;;;;0.25;0.14;;;;;;;16.31;53.92;98500.97;2016073;78;28554;-74
2021/05/13 14:33:43;;;;;;;0.10;0.10;;;;;;;16.16;52.63;98504.25;2017307;80;20322;-73
2021/05/13 14:36:46;;;;;;;0.10;0.10;;;;;;;16.30;53.97;98502.72;2017185;80;20245;-74